Time;durP1;ratioP1;P1;durP2;ratioP2;P2;SDS_P1;SDS_P2;PMS_P1;PMS_P2;Temp;Humidity;BMP_temperature;BMP_pressure;BME280_temperature;BME280_humidity;BME280_pressure;Samples;Min_cycle;Max_cycle;Signal;HPM_P1;HPM_P2
2021/04/05 00:00:25;;;;;;;59.75;28.40;;;;;;;-2.17;78.94;97811.73;1827279;77;22035;-72
2021/04/05 00:02:54;;;;;;;53.25;25.90;;;;;;;-2.29;80.41;97810.20;1827211;78;21125;-72
2021/04/05 00:05:27;;;;;;;48.73;24.18;;;;;;;-2.35;81.48;97802.53;1826827;77;21499;-72
2021/04/05 00:07:53;;;;;;;43.80;20.60;;;;;;;-2.24;80.19;97808.25;1826768;78;21118;-74
2021/04/05 00:10:26;;;;;;;62.05;30.60;;;;;;;-2.18;79.18;97802.14;1826762;77;21118;-74
2021/04/05 00:12:54;;;;;;;61.63;28.90;;;;;;;-2.29;79.24;97800.41;1826662;78;21264;-74
2021/04/05 00:15:20;;;;;;;57.08;31.25;;;;;;;-2.34;81.64;97798.86;1826698;77;21098;-74
2021/04/05 00:17:46;;;;;;;55.50;28.17;;;;;;;-2.30;81.75;97788.67;1826667;78;21257;-74
2021/04/05 00:20:23;;;;;;;60.10;30.70;;;;;;;-2.26;80.90;97792.53;1826659;77;21424;-73
2021/04/05 00:22:49;;;;;;;63.45;31.75;;;;;;;-2.29;80.12;97783.66;1826760;78;21563;-72
2021/04/05 00:25:16;;;;;;;58.10;27.65;;;;;;;-2.35;81.03;97785.80;1826650;77;21228;-73
2021/04/05 00:27:42;;;;;;;56.02;25.27;;;;;;;-2.34;80.98;97783.45;1826677;78;20983;-73
2021/04/05 00:30:18;;;;;;;53.45;27.52;;;;;;;-2.36;80.81;97781.52;1826725;77;21043;-73
2021/04/05 00:32:47;;;;;;;45.78;25.35;;;;;;;-2.35;81.59;97776.50;1826608;78;21118;-73
2021/04/05 00:35:17;;;;;;;38.25;18.70;;;;;;;-2.31;81.54;97769.27;1826419;77;21110;-73
2021/04/05 00:37:48;;;;;;;40.88;20.27;;;;;;;-2.25;81.34;97766.30;1826657;78;22064;-73
2021/04/05 00:40:16;;;;;;;49.42;21.97;;;;;;;-2.25;81.60;97755.68;1826661;77;21106;-73
2021/04/05 00:42:43;;;;;;;43.58;22.17;;;;;;;-2.24;82.09;97749.34;1826731;78;21106;-73
2021/04/05 00:45:12;;;;;;;47.17;24.10;;;;;;;-2.25;81.84;97749.55;1826701;77;21007;-73
2021/04/05 00:47:40;;;;;;;49.30;25.08;;;;;;;-2.23;82.20;97746.17;1826744;78;21086;-73
2021/04/05 00:50:23;;;;;;;49.45;25.82;;;;;;;-2.21;81.51;97740.99;1826785;77;21192;-73
2021/04/05 00:52:53;;;;;;;55.92;27.42;;;;;;;-2.28;81.64;97734.35;1826006;78;21122;-73
2021/04/05 00:55:19;;;;;;;52.38;23.70;;;;;;;-2.30;82.10;97731.60;1826738;77;21538;-74
2021/04/05 00:57:46;;;;;;;48.15;22.35;;;;;;;-2.27;81.19;97731.19;1826628;78;21150;-73
2021/04/05 01:00:15;;;;;;;40.92;18.85;;;;;;;-2.29;81.02;97729.25;1768804;78;21030;-73
2021/04/05 01:02:42;;;;;;;38.63;18.37;;;;;;;-2.28;80.45;97722.92;1826740;78;21196;-74
2021/04/05 01:05:09;;;;;;;33.98;17.98;;;;;;;-2.22;79.90;97723.91;1826546;77;21034;-73
2021/04/05 01:07:36;;;;;;;42.50;20.68;;;;;;;-2.23;79.58;97723.61;1826659;78;21114;-73
2021/04/05 01:10:06;;;;;;;40.65;18.85;;;;;;;-2.31;81.71;97718.00;1826683;77;21591;-73
2021/04/05 01:12:33;;;;;;;45.30;23.67;;;;;;;-2.26;80.40;97711.58;1826723;78;21063;-74
2021/04/05 01:14:59;;;;;;;47.65;23.32;;;;;;;-2.31;81.38;97704.25;1826652;77;21400;-74
2021/04/05 01:17:25;;;;;;;55.70;25.43;;;;;;;-2.29;80.53;97698.22;1826627;78;21526;-73
2021/04/05 01:19:51;;;;;;;45.80;23.07;;;;;;;-2.28;80.67;97692.39;1826583;77;21083;-73
2021/04/05 01:22:18;;;;;;;67.60;28.20;;;;;;;-2.34;81.10;97687.90;1826622;78;21137;-74
2021/04/05 01:24:44;;;;;;;79.80;34.48;;;;;;;-2.35;80.81;97680.96;1826567;77;21098;-74
2021/04/05 01:27:10;;;;;;;86.20;38.45;;;;;;;-2.37;80.25;97682.50;1826608;78;21192;-73
2021/04/05 01:29:37;;;;;;;48.98;23.22;;;;;;;-2.41;80.91;97679.12;1826562;78;21110;-73
2021/04/05 01:32:06;;;;;;;92.72;41.48;;;;;;;-2.40;79.37;97683.41;1826696;78;21086;-74
2021/04/05 01:34:32;;;;;;;152.90;61.90;;;;;;;-2.62;81.75;97670.36;1795155;78;21082;-74
2021/04/05 01:37:01;;;;;;;109.40;46.92;;;;;;;-2.64;82.63;97680.37;1794658;78;21034;-74
2021/04/05 01:39:27;;;;;;;131.07;56.48;;;;;;;-2.56;81.28;97676.19;1826602;78;21196;-74
2021/04/05 01:41:53;;;;;;;52.73;25.95;;;;;;;-2.56;81.98;97678.02;1826541;77;21165;-74
2021/04/05 01:44:20;;;;;;;47.15;20.35;;;;;;;-2.51;80.27;97665.45;1826643;78;21090;-74
2021/04/05 01:46:46;;;;;;;83.30;37.55;;;;;;;-2.54;79.97;97655.27;1826659;77;21066;-74
2021/04/05 01:49:12;;;;;;;108.10;54.38;;;;;;;-2.59;80.81;97655.35;1826588;78;21019;-74
2021/04/05 01:51:38;;;;;;;96.20;53.02;;;;;;;-2.64;81.60;97656.49;1826719;77;21404;-74
2021/04/05 01:54:05;;;;;;;81.70;46.42;;;;;;;-2.64;81.18;97660.98;1825616;78;21497;-74
2021/04/05 01:56:31;;;;;;;61.58;30.30;;;;;;;-2.69;81.40;97655.46;1824530;77;21070;-74
2021/04/05 01:58:57;;;;;;;47.17;27.62;;;;;;;-2.69;80.68;97640.36;1824667;78;21507;-74
2021/04/05 02:01:26;;;;;;;37.42;20.08;;;;;;;-2.69;80.94;97633.73;1824541;77;21085;-74
2021/04/05 02:03:52;;;;;;;;;;;;;;;-2.62;79.60;97619.14;1827333;78;22051;-73
2021/04/05 02:06:33;;;;;;;42.15;18.80;;;;;;;-2.74;80.45;97624.74;1824487;77;20258;-74
2021/04/05 02:08:59;;;;;;;40.45;23.18;;;;;;;-2.75;82.14;97621.28;1824594;78;21054;-72
2021/04/05 02:11:32;;;;;;;39.70;22.25;;;;;;;-2.77;82.24;97615.88;1824515;77;21084;-73
2021/04/05 02:13:58;;;;;;;29.07;15.65;;;;;;;-2.81;82.24;97607.53;1824055;78;21015;-73
2021/04/05 02:16:25;;;;;;;36.17;17.70;;;;;;;-2.71;81.04;97595.98;1824511;77;21151;-73
2021/04/05 02:18:52;;;;;;;30.17;15.40;;;;;;;-2.68;80.31;97595.57;1824454;78;21098;-73
2021/04/05 02:21:21;;;;;;;34.27;17.52;;;;;;;-2.64;79.90;97584.87;1824511;77;21050;-73
2021/04/05 02:23:50;;;;;;;26.60;15.05;;;;;;;-2.69;81.52;97578.03;1824680;78;21519;-73
2021/04/05 02:26:24;;;;;;;29.72;15.45;;;;;;;-2.63;81.84;97570.58;1824328;77;21098;-73
2021/04/05 02:28:53;;;;;;;32.50;15.70;;;;;;;-2.54;80.45;97573.02;1824511;78;21245;-74
2021/04/05 02:31:23;;;;;;;;;;;;;;;-2.61;81.39;97569.05;1827211;77;21110;-73
2021/04/05 02:33:52;;;;;;;31.65;15.90;;;;;;;-2.60;81.86;97566.69;1824487;78;20220;-73
2021/04/05 02:36:22;;;;;;;35.33;17.17;;;;;;;-2.52;81.45;97567.80;1824615;77;21404;-73
2021/04/05 02:38:51;;;;;;;34.67;20.90;;;;;;;-2.51;81.19;97558.81;1824616;78;21015;-74
2021/04/05 02:41:17;;;;;;;;;;;;;;;-2.54;81.08;97555.26;1827272;77;22057;-73
2021/04/05 02:43:44;;;;;;;30.40;16.87;;;;;;;-2.53;81.50;97550.77;1824474;78;20475;-73
2021/04/05 02:46:20;;;;;;;31.35;16.35;;;;;;;-2.51;80.74;97555.34;1796929;78;21443;-73
2021/04/05 02:48:48;;;;;;;32.23;16.30;;;;;;;-2.51;80.23;97557.48;1824508;78;21023;-74
2021/04/05 02:51:14;;;;;;;36.68;19.42;;;;;;;-2.51;80.24;97551.36;1797647;78;21082;-74
2021/04/05 02:53:44;;;;;;;30.77;15.95;;;;;;;-2.59;81.21;97547.09;1824645;78;22115;-74
2021/04/05 02:56:11;;;;;;;31.50;15.55;;;;;;;-2.61;81.56;97538.02;1825552;77;21034;-74
2021/04/05 02:58:42;;;;;;;26.95;16.15;;;;;;;-2.62;81.08;97530.27;1826581;78;21491;-74
2021/04/05 03:01:09;;;;;;;27.82;16.85;;;;;;;-2.62;81.23;97526.30;1825547;77;21034;-74
2021/04/05 03:03:39;;;;;;;32.23;14.53;;;;;;;-2.67;81.18;97520.78;1826637;78;21546;-73
2021/04/05 03:06:06;;;;;;;26.73;14.43;;;;;;;-2.62;80.56;97515.17;1826539;77;21319;-73
2021/04/05 03:08:33;;;;;;;25.75;12.88;;;;;;;-2.62;80.65;97510.38;1826436;78;21082;-73
2021/04/05 03:10:59;;;;;;;32.45;15.95;;;;;;;-2.61;80.04;97503.53;1826548;77;21050;-73
2021/04/05 03:13:26;;;;;;;25.50;14.50;;;;;;;-2.71;80.86;97500.50;1826590;78;21490;-73
2021/04/05 03:15:52;;;;;;;28.60;12.73;;;;;;;-2.72;80.84;97500.20;1826537;77;21018;-73
2021/04/05 03:18:20;;;;;;;22.27;12.88;;;;;;;-2.71;80.11;97483.27;1826615;78;21183;-73
2021/04/05 03:20:47;;;;;;;26.77;13.15;;;;;;;-2.67;79.60;97491.09;1826475;77;21487;-72
2021/04/05 03:23:14;;;;;;;23.20;11.45;;;;;;;-2.65;80.66;97485.58;1826622;78;21113;-73
2021/04/05 03:25:40;;;;;;;23.50;13.00;;;;;;;-2.65;80.26;97479.79;1826495;77;21064;-73
2021/04/05 03:28:06;;;;;;;23.30;13.48;;;;;;;-2.62;80.10;97478.03;1826573;78;21071;-73
2021/04/05 03:30:43;;;;;;;32.63;17.10;;;;;;;-2.62;79.62;97479.36;1826453;77;21259;-73
2021/04/05 03:33:27;;;;;;;34.18;18.05;;;;;;;-2.70;80.14;97471.63;1826482;78;21062;-72
2021/04/05 03:35:56;;;;;;;37.63;17.57;;;;;;;-2.69;80.21;97471.11;1826494;77;21365;-73
2021/04/05 03:38:22;;;;;;;31.00;15.85;;;;;;;-2.76;80.24;97459.70;1826142;78;21090;-74
2021/04/05 03:40:48;;;;;;;37.00;16.07;;;;;;;-2.71;79.56;97457.25;1826714;77;21014;-74
2021/04/05 03:43:28;;;;;;;28.57;15.58;;;;;;;-2.72;78.96;97451.66;1826708;78;21444;-73
2021/04/05 03:45:59;;;;;;;31.52;15.25;;;;;;;-2.79;80.05;97439.73;1826623;77;21114;-73
2021/04/05 03:48:35;;;;;;;20.45;12.10;;;;;;;-2.78;80.64;97430.75;1826703;78;21082;-74
2021/04/05 03:51:25;;;;;;;26.95;14.23;;;;;;;-2.74;81.05;97436.44;1826638;77;21090;-73
2021/04/05 03:53:55;;;;;;;25.65;14.15;;;;;;;-2.76;80.68;97431.34;1826286;78;21488;-73
2021/04/05 03:56:46;;;;;;;26.90;15.60;;;;;;;-2.74;80.19;97431.94;1824731;77;21193;-74
2021/04/05 03:59:16;;;;;;;26.37;14.73;;;;;;;-2.80;80.06;97424.84;1824540;78;21011;-73
2021/04/05 04:01:52;;;;;;;23.65;14.07;;;;;;;-2.77;80.05;97426.25;1824386;77;21066;-73
2021/04/05 04:04:26;;;;;;;24.65;13.75;;;;;;;-2.72;79.92;97424.61;1824725;78;21027;-74
2021/04/05 04:09:43;;;;;;;29.07;13.62;;;;;;;-2.60;79.83;97403.03;1824582;77;21388;-73
2021/04/05 04:12:15;;;;;;;28.65;16.17;;;;;;;-2.49;80.11;97398.08;1824699;78;21078;-73
2021/04/05 04:14:42;;;;;;;29.75;14.10;;;;;;;-2.49;79.35;97390.93;1824673;77;21431;-73
2021/04/05 04:17:09;;;;;;;30.92;14.98;;;;;;;-2.53;79.24;97384.95;1824623;78;21121;-73
2021/04/05 04:19:39;;;;;;;26.62;13.88;;;;;;;-2.58;79.20;97370.46;1797524;78;21113;-73
2021/04/05 04:22:05;;;;;;;27.95;14.15;;;;;;;-2.40;79.19;97372.41;1824638;78;21195;-74
2021/04/05 04:24:33;;;;;;;48.10;22.73;;;;;;;-2.21;79.04;97377.84;1824604;78;21158;-74
2021/04/05 04:27:00;;;;;;;140.82;50.03;;;;;;;-2.14;78.30;97364.80;1824679;77;22218;-74
2021/04/05 04:29:26;;;;;;;158.90;59.67;;;;;;;-2.10;78.00;97365.20;1824688;78;21459;-74
2021/04/05 04:31:52;;;;;;;98.87;36.75;;;;;;;-2.08;78.24;97357.82;1824632;77;21400;-74
2021/04/05 04:34:21;;;;;;;79.00;30.82;;;;;;;-2.04;78.22;97359.84;1824532;78;21291;-73
2021/04/05 04:36:47;;;;;;;22.22;10.78;;;;;;;-1.94;78.04;97350.06;1824752;77;21494;-74
2021/04/05 04:39:14;;;;;;;11.00;6.30;;;;;;;-1.82;77.65;97340.87;1824580;78;21198;-74
2021/04/05 04:41:44;;;;;;;13.05;7.45;;;;;;;-1.62;77.12;97338.03;1824575;77;21117;-73
2021/04/05 04:44:10;;;;;;;21.87;10.58;;;;;;;-1.41;76.48;97330.98;1824035;78;21082;-74
2021/04/05 04:46:37;;;;;;;11.10;6.20;;;;;;;-1.28;76.06;97328.70;1797131;78;21094;-74
2021/04/05 04:49:08;;;;;;;16.15;8.40;;;;;;;-1.17;75.45;97318.67;1824536;78;21114;-74
2021/04/05 04:51:35;;;;;;;24.23;11.65;;;;;;;-1.09;75.30;97319.71;1798115;78;21105;-73
2021/04/05 04:54:02;;;;;;;31.95;13.95;;;;;;;-1.07;75.11;97320.81;1824453;78;21121;-73
2021/04/05 04:56:29;;;;;;;23.98;13.25;;;;;;;-1.07;75.17;97320.30;1824634;77;21019;-73
2021/04/05 04:59:02;;;;;;;18.90;9.40;;;;;;;-1.05;75.04;97317.41;1824625;78;21196;-73
2021/04/05 05:01:29;;;;;;;20.88;5.62;;;;;;;-0.96;75.13;97307.57;1823435;77;21043;-74
2021/04/05 05:03:59;;;;;;;21.87;11.60;;;;;;;-0.89;74.56;97300.33;1824634;78;21098;-74
2021/04/05 05:06:26;;;;;;;33.25;18.75;;;;;;;-0.89;74.44;97296.34;1797097;78;21122;-74
2021/04/05 05:08:52;;;;;;;16.15;6.00;;;;;;;-0.88;74.76;97289.16;1824649;78;21095;-74
2021/04/05 05:11:18;;;;;;;21.23;11.48;;;;;;;-0.78;74.68;97281.97;1824543;77;21419;-74
2021/04/05 05:13:44;;;;;;;20.80;11.60;;;;;;;-0.65;74.21;97291.93;1824598;78;21138;-74
2021/04/05 05:16:10;;;;;;;30.97;16.93;;;;;;;-0.54;73.85;97285.02;1824536;77;21030;-74
2021/04/05 05:18:36;;;;;;;24.27;14.68;;;;;;;-0.47;73.60;97276.95;1824685;78;21157;-74
2021/04/05 05:21:07;;;;;;;25.08;14.58;;;;;;;-0.37;73.34;97264.70;1824628;77;21075;-74
2021/04/05 05:23:36;;;;;;;13.00;6.83;;;;;;;-0.26;73.50;97266.28;1824451;77;21196;-73
2021/04/05 05:26:02;;;;;;;24.63;13.88;;;;;;;-0.09;72.91;97252.58;1797245;78;21093;-73
2021/04/05 05:28:28;;;;;;;23.05;13.78;;;;;;;-0.05;73.03;97252.43;1824556;78;21110;-73
2021/04/05 05:30:54;;;;;;;23.50;12.00;;;;;;;0.06;73.14;97250.28;1824601;77;21082;-73
2021/04/05 05:33:21;;;;;;;11.10;5.53;;;;;;;0.20;72.71;97249.02;1824534;78;21145;-73
2021/04/05 05:35:47;;;;;;;23.85;12.05;;;;;;;0.35;71.95;97239.75;1824511;77;21195;-73
2021/04/05 05:38:13;;;;;;;11.03;5.53;;;;;;;0.43;71.72;97233.55;1824618;78;21161;-73
2021/04/05 05:40:40;;;;;;;18.60;11.45;;;;;;;0.65;71.13;97227.58;1824572;77;21163;-73
2021/04/05 05:43:37;;;;;;;16.93;9.80;;;;;;;0.84;71.14;97233.03;1824560;78;21117;-73
2021/04/05 05:46:14;;;;;;;12.73;7.97;;;;;;;1.15;70.67;97238.97;1824559;77;21098;-73
2021/04/05 05:49:09;;;;;;;18.42;10.35;;;;;;;1.41;70.72;97231.71;1824696;78;21144;-74
2021/04/05 05:52:03;;;;;;;22.07;11.10;;;;;;;1.59;68.83;97224.81;1824511;77;21109;-73
2021/04/05 05:54:59;;;;;;;31.05;13.68;;;;;;;1.73;70.22;97219.17;1824567;78;21078;-73
2021/04/05 05:57:39;;;;;;;26.40;16.85;;;;;;;1.93;69.66;97209.61;1822516;78;21519;-74
2021/04/05 06:00:27;;;;;;;22.13;13.25;;;;;;;2.04;69.43;97210.56;1826516;77;21016;-74
2021/04/05 06:03:39;;;;;;;21.57;10.60;;;;;;;2.15;69.10;97195.51;1826499;78;21456;-73
2021/04/05 06:06:21;;;;;;;20.17;9.68;;;;;;;2.29;67.49;97190.07;1825943;77;21090;-73
2021/04/05 06:09:12;;;;;;;38.00;13.15;;;;;;;2.38;65.91;97193.12;1826601;78;21126;-73
2021/04/05 06:11:49;;;;;;;21.95;11.25;;;;;;;2.52;65.76;97200.55;1776701;79;21103;-73
2021/04/05 06:14:56;;;;;;;19.35;10.35;;;;;;;2.62;65.81;97203.08;1815934;78;21086;-74
2021/04/05 06:17:33;;;;;;;25.72;11.73;;;;;;;2.71;65.27;97193.02;1826377;78;21266;-73
2021/04/05 06:20:20;;;;;;;25.80;11.35;;;;;;;3.03;62.99;97181.62;1826585;77;21232;-74
2021/04/05 06:23:26;;;;;;;20.48;9.95;;;;;;;3.29;62.70;97171.97;1826681;78;21074;-73
2021/04/05 06:26:03;;;;;;;18.15;10.08;;;;;;;3.60;64.60;97158.33;1756870;81;21058;-74
2021/04/05 06:29:00;;;;;;;18.67;8.73;;;;;;;4.16;62.49;97152.81;1756970;81;21506;-73
2021/04/05 06:32:15;;;;;;;16.57;8.60;;;;;;;4.45;60.76;97139.84;1820952;76;23186;-73
2021/04/05 06:35:05;;;;;;;24.30;10.35;;;;;;;4.51;59.56;97139.30;1785862;79;21476;-74
2021/04/05 06:37:47;;;;;;;17.23;12.20;;;;;;;4.47;60.83;97135.55;1785953;79;22073;-73
2021/04/05 06:40:16;;;;;;;17.15;11.40;;;;;;;4.88;59.45;97129.80;1785806;79;21035;-73
2021/04/05 06:43:14;;;;;;;21.15;11.57;;;;;;;4.85;59.02;97124.12;1785895;80;20964;-74
2021/04/05 06:46:00;;;;;;;29.00;14.53;;;;;;;5.01;57.85;97112.36;1785869;79;20988;-72
2021/04/05 06:49:03;;;;;;;18.57;9.05;;;;;;;5.06;57.44;97105.13;1776643;80;20940;-73
2021/04/05 06:52:06;;;;;;;33.85;15.70;;;;;;;5.51;58.02;97094.68;1785566;79;21265;-74
2021/04/05 06:54:55;;;;;;;22.65;13.35;;;;;;;6.25;59.03;97092.70;1785871;80;21027;-74
2021/04/05 06:57:26;;;;;;;18.57;10.45;;;;;;;7.06;58.58;97082.07;1785705;79;21530;-74
2021/04/05 06:59:58;;;;;;;13.50;8.50;;;;;;;7.67;56.47;97074.05;1785930;79;21134;-74
2021/04/05 07:02:55;;;;;;;22.90;9.53;;;;;;;8.28;54.40;97074.22;1785897;80;21099;-74
2021/04/05 07:05:33;;;;;;;16.02;9.18;;;;;;;8.69;54.03;97070.52;1785911;79;21199;-74
2021/04/05 07:08:21;;;;;;;10.68;6.22;;;;;;;9.27;53.18;97064.83;1786037;80;21110;-73
2021/04/05 07:10:53;;;;;;;14.47;6.73;;;;;;;9.81;51.51;97057.98;1786022;79;21117;-74
2021/04/05 07:13:32;;;;;;;15.70;8.58;;;;;;;10.38;48.19;97057.22;1784464;80;21078;-74
2021/04/05 07:16:17;;;;;;;29.42;17.00;;;;;;;10.79;46.86;97047.45;1785827;79;21067;-74
2021/04/05 07:19:25;;;;;;;11.93;6.70;;;;;;;11.03;43.39;97043.13;1785676;79;21131;-73
2021/04/05 07:21:56;;;;;;;11.73;6.83;;;;;;;11.43;46.41;97040.80;1786142;79;21479;-74
2021/04/05 07:24:32;;;;;;;10.80;5.58;;;;;;;12.21;46.08;97033.66;1785462;80;21511;-75
2021/04/05 07:27:19;;;;;;;14.78;5.05;;;;;;;12.97;44.86;97022.73;1785824;79;21091;-74
2021/04/05 07:30:13;;;;;;;11.35;4.42;;;;;;;13.32;39.35;97014.59;1787393;78;21280;-74
2021/04/05 07:33:07;;;;;;;11.00;6.40;;;;;;;13.48;36.98;96995.29;1797839;79;22069;-74
2021/04/05 07:36:18;;;;;;;7.15;4.25;;;;;;;13.73;36.23;97014.05;1797704;78;21043;-74
2021/04/05 07:39:10;;;;;;;11.20;5.12;;;;;;;13.78;35.88;97015.81;1797972;79;21495;-74
2021/04/05 07:42:15;;;;;;;3.95;2.60;;;;;;;14.04;35.00;97004.84;1796239;78;21573;-73
2021/04/05 07:45:11;;;;;;;8.48;3.83;;;;;;;14.30;30.94;96989.73;1797262;78;21062;-73
2021/04/05 07:48:01;;;;;;;9.63;4.37;;;;;;;14.58;32.12;96997.70;1797311;79;22042;-74
2021/04/05 07:50:44;;;;;;;13.75;3.58;;;;;;;14.60;35.04;96994.07;1773833;78;21530;-74
2021/04/05 07:53:32;;;;;;;9.25;4.33;;;;;;;15.23;34.25;96984.56;1797273;79;21070;-73
2021/04/05 07:56:05;;;;;;;12.95;5.35;;;;;;;15.53;31.11;96981.13;1797340;78;21499;-74
2021/04/05 07:58:53;;;;;;;9.10;4.72;;;;;;;15.92;31.29;96969.43;1797115;79;21075;-73
2021/04/05 08:01:37;;;;;;;6.22;3.22;;;;;;;15.92;32.01;96978.42;1797340;78;21259;-74
2021/04/05 08:04:15;;;;;;;8.60;5.78;;;;;;;16.91;29.37;96971.78;1796951;79;21098;-74
2021/04/05 08:07:04;;;;;;;8.93;3.65;;;;;;;16.67;29.50;96969.88;1797216;78;21109;-73
2021/04/05 08:09:42;;;;;;;13.05;4.45;;;;;;;17.10;29.24;96950.08;1770540;79;21102;-75
2021/04/05 08:12:31;;;;;;;5.60;2.90;;;;;;;17.10;28.47;96953.39;1797243;79;21093;-74
2021/04/05 08:15:46;;;;;;;6.80;4.15;;;;;;;17.54;26.11;96936.42;1781318;78;21262;-74
2021/04/05 08:18:17;;;;;;;9.55;5.95;;;;;;;16.76;28.48;96937.75;1797290;79;21475;-73
2021/04/05 08:21:15;;;;;;;9.73;5.37;;;;;;;16.82;26.98;96928.72;1797191;78;21107;-74
2021/04/05 08:23:56;;;;;;;10.50;6.08;;;;;;;17.36;26.72;96919.52;1797415;79;21090;-74
2021/04/05 08:26:39;;;;;;;7.42;3.83;;;;;;;17.36;27.42;96911.88;1797300;78;21062;-73
2021/04/05 08:29:34;;;;;;;8.68;5.55;;;;;;;18.14;25.24;96906.23;1797282;79;21479;-74
2021/04/05 08:32:26;;;;;;;8.18;5.20;;;;;;;17.72;25.89;96898.56;1785615;78;21491;-73
2021/04/05 08:35:33;;;;;;;8.30;5.12;;;;;;;18.51;25.54;96891.02;1785213;79;21099;-74
2021/04/05 08:38:11;;;;;;;44.20;7.47;;;;;;;18.59;25.18;96905.70;1785088;80;20960;-74
2021/04/05 08:41:34;;;;;;;7.12;3.90;;;;;;;19.08;24.22;96900.50;1852447;77;22751;-74
2021/04/05 08:44:33;;;;;;;8.45;4.00;;;;;;;18.90;25.41;96911.69;1819894;78;21106;-74
2021/04/05 08:46:59;;;;;;;8.70;3.70;;;;;;;19.28;24.75;96889.48;1819939;78;21193;-75
2021/04/05 08:49:26;;;;;;;9.45;4.62;;;;;;;19.94;23.64;96875.39;1820100;78;21030;-75
2021/04/05 08:52:02;;;;;;;9.70;6.22;;;;;;;19.65;23.92;96859.02;1820163;78;21106;-75
2021/04/05 08:54:29;;;;;;;6.35;3.55;;;;;;;19.89;23.83;96854.28;1820158;78;21165;-74
2021/04/05 08:57:02;;;;;;;10.82;5.15;;;;;;;19.75;23.52;96853.48;1820183;78;21384;-74
2021/04/05 08:59:41;;;;;;;8.78;4.20;;;;;;;19.86;23.41;96839.33;1820109;78;22062;-75
2021/04/05 09:02:27;;;;;;;6.87;4.25;;;;;;;20.86;22.87;96839.96;1820071;78;21071;-74
2021/04/05 09:04:54;;;;;;;9.53;4.85;;;;;;;19.48;24.36;96827.05;1820031;78;21015;-74
2021/04/05 09:07:44;;;;;;;7.42;4.20;;;;;;;20.44;23.05;96822.53;1820072;78;21090;-74
2021/04/05 09:10:10;;;;;;;6.03;3.75;;;;;;;19.85;23.90;96805.34;1820150;78;21012;-75
2021/04/05 09:12:37;;;;;;;10.90;5.17;;;;;;;19.03;24.08;96812.14;1820145;78;21192;-75
2021/04/05 09:15:31;;;;;;;8.80;4.67;;;;;;;18.24;24.35;96809.73;1819970;78;21177;-75
2021/04/05 09:18:24;;;;;;;5.08;3.80;;;;;;;17.89;25.19;96792.70;1749878;82;21526;-74
2021/04/05 09:21:22;;;;;;;8.28;4.67;;;;;;;17.04;26.25;96781.80;1793048;78;21105;-74
2021/04/05 09:24:16;;;;;;;6.67;4.10;;;;;;;15.60;28.49;96775.81;1820072;78;21137;-73
2021/04/05 09:26:51;;;;;;;11.48;5.10;;;;;;;14.67;30.14;96773.52;1820039;78;22151;-74
2021/04/05 09:30:29;;;;;;;6.35;3.87;;;;;;;13.99;31.40;96765.34;1847366;76;22437;-73
2021/04/05 09:33:21;;;;;;;9.05;3.80;;;;;;;13.38;32.02;96767.64;1786188;80;20861;-74
2021/04/05 09:36:28;;;;;;;13.43;5.28;;;;;;;13.00;32.83;96757.55;1785927;80;22020;-74
2021/04/05 09:39:25;;;;;;;8.73;4.37;;;;;;;12.96;33.04;96765.54;1785320;80;21101;-74
2021/04/05 09:42:15;;;;;;;8.03;4.22;;;;;;;12.59;33.64;96742.63;1762835;80;21487;-74
2021/04/05 09:45:05;;;;;;;6.42;4.08;;;;;;;12.45;34.33;96738.50;1773496;80;21082;-74
2021/04/05 09:47:43;;;;;;;8.28;4.83;;;;;;;12.44;34.07;96734.98;1785313;80;20924;-74
2021/04/05 09:50:27;;;;;;;10.10;3.87;;;;;;;12.21;34.75;96716.71;1785991;80;21186;-74
2021/04/05 09:53:19;;;;;;;7.67;5.08;;;;;;;12.11;34.94;96719.77;1785816;80;20905;-73
2021/04/05 09:55:48;;;;;;;7.72;4.42;;;;;;;12.08;35.19;96727.20;1785955;80;21027;-74
2021/04/05 09:58:25;;;;;;;10.30;4.87;;;;;;;12.07;34.98;96709.31;1785337;80;21035;-74
2021/04/05 10:00:57;;;;;;;8.08;4.92;;;;;;;12.11;34.75;96710.26;1785839;80;21066;-73
2021/04/05 10:03:23;;;;;;;15.72;6.58;;;;;;;12.02;35.08;96700.77;1785837;80;21181;-74
2021/04/05 10:05:50;;;;;;;13.13;7.90;;;;;;;12.14;35.72;96698.77;1785879;79;21070;-74
2021/04/05 10:08:25;;;;;;;18.75;6.40;;;;;;;12.16;35.59;96706.59;1785766;80;21051;-74
2021/04/05 10:10:53;;;;;;;11.20;6.05;;;;;;;12.22;34.73;96704.76;1785512;80;21082;-74
2021/04/05 10:13:21;;;;;;;11.95;5.58;;;;;;;12.20;34.71;96687.17;1785922;80;21471;-74
2021/04/05 10:15:52;;;;;;;10.18;5.78;;;;;;;12.19;35.06;96695.88;1786089;80;21124;-74
2021/04/05 10:18:18;;;;;;;8.85;5.45;;;;;;;12.27;35.26;96708.64;1785775;80;21146;-74
2021/04/05 10:20:52;;;;;;;10.45;4.83;;;;;;;12.35;35.18;96702.97;1755411;80;21466;-74
2021/04/05 10:23:21;;;;;;;9.70;5.30;;;;;;;12.41;34.50;96687.53;1785793;80;21380;-73
2021/04/05 10:25:59;;;;;;;8.28;3.25;;;;;;;12.42;35.00;96694.56;1785789;80;21452;-74
2021/04/05 10:28:31;;;;;;;13.90;5.90;;;;;;;12.65;34.84;96680.20;1785630;78;21192;-74
2021/04/05 10:31:00;;;;;;;5.87;2.83;;;;;;;12.78;33.70;96672.14;1785848;80;21035;-73
2021/04/05 10:33:38;;;;;;;21.37;7.08;;;;;;;12.81;33.43;96664.69;1785820;80;21039;-73
2021/04/05 10:36:08;;;;;;;9.43;3.85;;;;;;;12.66;33.52;96672.28;1785943;80;21044;-73
2021/04/05 10:38:36;;;;;;;10.38;3.47;;;;;;;12.70;34.12;96667.77;1785096;80;21097;-73
2021/04/05 10:41:06;;;;;;;4.72;2.80;;;;;;;12.80;34.05;96666.61;1785295;80;21449;-73
2021/04/05 10:43:54;;;;;;;7.20;3.22;;;;;;;12.91;34.25;96648.83;1784948;80;21148;-73
2021/04/05 10:46:32;;;;;;;6.58;3.40;;;;;;;13.01;34.04;96646.86;1785264;80;28188;-75
2021/04/05 10:49:11;;;;;;;6.23;2.70;;;;;;;13.16;33.64;96648.45;1785402;80;21106;-73
2021/04/05 10:51:47;;;;;;;7.62;3.40;;;;;;;13.20;33.08;96656.20;1785412;80;21046;-73
2021/04/05 10:54:37;;;;;;;7.83;2.90;;;;;;;13.28;32.33;96653.77;1785245;80;21039;-74
2021/04/05 10:57:13;;;;;;;9.13;4.85;;;;;;;13.33;31.73;96635.34;1785180;80;21065;-72
2021/04/05 10:59:51;;;;;;;3.98;2.42;;;;;;;13.35;32.53;96653.48;1785233;80;21098;-73
2021/04/05 11:02:44;;;;;;;5.72;2.87;;;;;;;13.33;31.50;96637.23;1785555;80;21095;-73
2021/04/05 11:05:12;;;;;;;7.47;3.72;;;;;;;13.37;32.35;96628.66;1785353;80;21018;-74
2021/04/05 11:07:40;;;;;;;9.58;3.42;;;;;;;13.50;31.74;96619.42;1785424;80;21173;-74
2021/04/05 11:10:09;;;;;;;6.05;2.90;;;;;;;13.59;31.46;96616.09;1785164;80;21023;-74
2021/04/05 11:12:40;;;;;;;6.90;3.72;;;;;;;13.73;30.94;96604.92;1785307;80;21475;-74
2021/04/05 11:15:10;;;;;;;7.15;2.55;;;;;;;13.76;31.37;96606.99;1785236;80;21023;-73
2021/04/05 11:17:42;;;;;;;6.60;2.58;;;;;;;13.74;31.70;96611.95;1785228;80;21058;-73
2021/04/05 11:20:10;;;;;;;4.90;2.58;;;;;;;13.74;32.14;96617.39;1785222;80;21187;-74
2021/04/05 11:22:36;;;;;;;4.12;2.98;;;;;;;13.83;30.97;96614.82;1785106;80;21090;-74
2021/04/05 11:25:13;;;;;;;5.70;3.17;;;;;;;13.75;31.63;96613.54;1785303;80;21185;-74
2021/04/05 11:27:49;;;;;;;7.40;3.15;;;;;;;13.66;30.88;96608.17;1766801;79;21174;-73
2021/04/05 11:30:25;;;;;;;9.60;3.22;;;;;;;13.48;30.85;96597.20;1799165;79;21035;-74
2021/04/05 11:32:51;;;;;;;5.85;2.67;;;;;;;13.50;31.42;96604.45;1799822;79;21187;-73
2021/04/05 11:35:17;;;;;;;6.05;2.47;;;;;;;13.55;31.71;96603.70;1799662;79;21050;-73
2021/04/05 11:37:43;;;;;;;4.95;2.47;;;;;;;13.56;31.44;96596.34;1799716;79;21145;-73
2021/04/05 11:40:15;;;;;;;6.75;3.12;;;;;;;13.68;31.61;96587.45;1799837;79;21439;-73
2021/04/05 11:42:46;;;;;;;7.95;3.83;;;;;;;13.92;31.67;96588.08;1799753;79;21061;-73
2021/04/05 11:45:19;;;;;;;4.70;3.20;;;;;;;13.90;31.29;96581.61;1799826;79;21195;-74
2021/04/05 11:47:49;;;;;;;7.92;4.33;;;;;;;13.97;31.96;96575.06;1799631;79;21058;-73
2021/04/05 11:50:17;;;;;;;8.85;4.97;;;;;;;14.16;31.40;96566.36;1799703;79;21043;-73
2021/04/05 11:52:57;;;;;;;11.78;4.28;;;;;;;14.23;31.55;96554.34;1799794;79;21102;-73
2021/04/05 11:55:30;;;;;;;12.18;6.20;;;;;;;14.29;29.80;96542.10;1799758;79;21050;-73
2021/04/05 11:58:11;;;;;;;8.95;5.85;;;;;;;14.21;30.03;96564.80;1799825;79;22087;-73
2021/04/05 12:00:40;;;;;;;36.65;28.40;;;;;;;14.19;29.42;96553.45;1773505;79;21050;-74
2021/04/05 12:03:33;;;;;;;;;;;;;;;14.21;29.86;96540.84;1776078;79;21161;-74
2021/04/05 12:06:09;;;;;;;11.53;9.85;;;;;;;14.17;29.36;96540.70;1799770;79;20521;-73